SBI2906 UUDD-ESSA
Flight info
| Callsign | SBI2906 |
|---|---|
| Flight time | N/A |
| Altitude | 36000 |
| Route | SUNUN4N SUNUN M869 SOSEB P607 NOTAR/N0442F360 Y168 DOHOR DCT ERMEX DCT OSTOT DCT LUPET L77 XILAN |
| Aircraft | A321/M-SDE3FGHIRWY/LB1 |
Departure
| Time | 2026-05-01 08:06 |
|---|---|
| Airport | Domodedovo International Airport (UUDD) |
Arrival
| Time | N/A |
|---|---|
| Airport | Stockholm-Arlanda Airport (ESSA) |
| Time | Latitude | Longitude | Altitude | Speed | Heading |
|---|---|---|---|---|---|
| 2026-05-01 07:30 | 55.41302 | 37.90305 | 572 ft | 0 kts | 49° |
| 2026-05-01 07:50 | 55.41299 | 37.90299 | 572 ft | 2 kts | 51° |
| 2026-05-01 07:51 | 55.41288 | 37.90271 | 578 ft | 3 kts | 66° |
| 2026-05-01 07:51 | 55.41282 | 37.90239 | 574 ft | 3 kts | 90° |
| 2026-05-01 07:51 | 55.41285 | 37.90207 | 573 ft | 3 kts | 123° |
| 2026-05-01 07:52 | 55.41294 | 37.90189 | 573 ft | 1 kts | 145° |
| 2026-05-01 07:56 | 55.41287 | 37.90197 | 580 ft | 2 kts | 145° |
| 2026-05-01 07:56 | 55.41232 | 37.90264 | 570 ft | 7 kts | 146° |
| 2026-05-01 07:57 | 55.41183 | 37.90306 | 572 ft | 8 kts | 174° |
| 2026-05-01 07:57 | 55.41118 | 37.90190 | 575 ft | 6 kts | 235° |
| 2026-05-01 07:58 | 55.41027 | 37.89955 | 569 ft | 18 kts | 235° |
| 2026-05-01 07:58 | 55.40928 | 37.89701 | 573 ft | 11 kts | 235° |
| 2026-05-01 07:59 | 55.40851 | 37.89527 | 570 ft | 8 kts | 223° |
| 2026-05-01 07:59 | 55.40786 | 37.89373 | 570 ft | 13 kts | 235° |
| 2026-05-01 08:00 | 55.40488 | 37.89526 | 569 ft | 13 kts | 144° |
| 2026-05-01 08:01 | 55.40261 | 37.89800 | 566 ft | 14 kts | 144° |
| 2026-05-01 08:01 | 55.40181 | 37.89894 | 566 ft | 14 kts | 147° |
| 2026-05-01 08:01 | 55.40101 | 37.89990 | 558 ft | 14 kts | 146° |
| 2026-05-01 08:02 | 55.39935 | 37.90193 | 551 ft | 15 kts | 145° |
| 2026-05-01 08:02 | 55.39848 | 37.90295 | 549 ft | 15 kts | 146° |
| 2026-05-01 08:03 | 55.39701 | 37.90472 | 551 ft | 13 kts | 146° |
| 2026-05-01 08:03 | 55.39626 | 37.90541 | 545 ft | 10 kts | 178° |
| 2026-05-01 08:03 | 55.39593 | 37.90507 | 544 ft | 0 kts | 224° |
| 2026-05-01 08:04 | 55.39566 | 37.90448 | 548 ft | 12 kts | 236° |
| 2026-05-01 08:04 | 55.39544 | 37.90293 | 542 ft | 3 kts | 328° |
| 2026-05-01 08:05 | 55.39571 | 37.90264 | 543 ft | 22 kts | 327° |
| 2026-05-01 08:05 | 55.39972 | 37.89781 | 561 ft | 113 kts | 324° |
| 2026-05-01 08:05 | 55.40829 | 37.88743 | 623 ft | 175 kts | 325° |
| 2026-05-01 08:06 | 55.42744 | 37.86448 | 2424 ft | 159 kts | 325° |
| 2026-05-01 08:06 | 55.45000 | 37.83646 | 2396 ft | 223 kts | 325° |
| 2026-05-01 08:07 | 55.47728 | 37.80305 | 3704 ft | 236 kts | 326° |
| 2026-05-01 08:07 | 55.50407 | 37.77048 | 4003 ft | 233 kts | 325° |
| 2026-05-01 08:08 | 55.51502 | 37.74922 | 4007 ft | 234 kts | 295° |
| 2026-05-01 08:08 | 55.51088 | 37.69359 | 4932 ft | 246 kts | 240° |
| 2026-05-01 08:09 | 55.49302 | 37.64131 | 6654 ft | 249 kts | 240° |
| 2026-05-01 08:09 | 55.48410 | 37.61531 | 7392 ft | 253 kts | 240° |
| 2026-05-01 08:09 | 55.47478 | 37.58816 | 8137 ft | 258 kts | 241° |
| 2026-05-01 08:10 | 55.45172 | 37.53789 | 9017 ft | 281 kts | 216° |
| 2026-05-01 08:10 | 55.41842 | 37.49717 | 9949 ft | 299 kts | 216° |
| 2026-05-01 08:11 | 55.38412 | 37.45498 | 10218 ft | 303 kts | 216° |
| 2026-05-01 08:11 | 55.34937 | 37.41179 | 11624 ft | 307 kts | 217° |
| 2026-05-01 08:12 | 55.32242 | 37.35423 | 12197 ft | 308 kts | 249° |
| 2026-05-01 08:12 | 55.31648 | 37.31720 | 12452 ft | 321 kts | 266° |
| 2026-05-01 08:12 | 55.31539 | 37.25094 | 13546 ft | 328 kts | 272° |
| 2026-05-01 08:13 | 55.31492 | 37.21068 | 14215 ft | 332 kts | 272° |
| 2026-05-01 08:13 | 55.31429 | 37.16986 | 14835 ft | 337 kts | 272° |
| 2026-05-01 08:13 | 55.31955 | 37.08849 | 15339 ft | 336 kts | 294° |
| 2026-05-01 08:14 | 55.32821 | 37.05044 | 16039 ft | 336 kts | 297° |
| 2026-05-01 08:14 | 55.33702 | 37.01218 | 16693 ft | 340 kts | 297° |
| 2026-05-01 08:14 | 55.34583 | 36.97326 | 17120 ft | 344 kts | 297° |
| 2026-05-01 08:14 | 55.35459 | 36.93412 | 17203 ft | 345 kts | 297° |
| 2026-05-01 08:15 | 55.36348 | 36.89503 | 17204 ft | 343 kts | 300° |
| 2026-05-01 08:15 | 55.39255 | 36.83260 | 17207 ft | 326 kts | 330° |
| 2026-05-01 08:15 | 55.41235 | 36.81397 | 17527 ft | 322 kts | 345° |
| 2026-05-01 08:16 | 55.43379 | 36.80432 | 18284 ft | 315 kts | 358° |
| 2026-05-01 08:16 | 55.45554 | 36.80143 | 18929 ft | 314 kts | 1° |
| 2026-05-01 08:16 | 55.47765 | 36.79903 | 19558 ft | 315 kts | 1° |
| 2026-05-01 08:16 | 55.49957 | 36.79668 | 20162 ft | 316 kts | 2° |
| 2026-05-01 08:17 | 55.52154 | 36.79439 | 20755 ft | 317 kts | 2° |
| 2026-05-01 08:17 | 55.54360 | 36.79216 | 21358 ft | 318 kts | 2° |
| 2026-05-01 08:17 | 55.56576 | 36.78995 | 21941 ft | 320 kts | 2° |
| 2026-05-01 08:17 | 55.58804 | 36.78659 | 22509 ft | 325 kts | 356° |
| 2026-05-01 08:18 | 55.61005 | 36.77514 | 23039 ft | 337 kts | 345° |
| 2026-05-01 08:18 | 55.65202 | 36.72816 | 23345 ft | 372 kts | 333° |
| 2026-05-01 08:19 | 55.69481 | 36.67431 | 24070 ft | 381 kts | 333° |
| 2026-05-01 08:19 | 55.71649 | 36.64694 | 24460 ft | 383 kts | 333° |
| 2026-05-01 08:19 | 55.73825 | 36.61944 | 24819 ft | 385 kts | 333° |
| 2026-05-01 08:19 | 55.76007 | 36.59186 | 25231 ft | 386 kts | 333° |
| 2026-05-01 08:20 | 55.78207 | 36.56412 | 25619 ft | 388 kts | 333° |
| 2026-05-01 08:20 | 55.80417 | 36.53631 | 26003 ft | 391 kts | 333° |
| 2026-05-01 08:20 | 55.82669 | 36.50802 | 26383 ft | 393 kts | 333° |
| 2026-05-01 08:20 | 55.84908 | 36.47984 | 26767 ft | 395 kts | 333° |
| 2026-05-01 08:21 | 55.87157 | 36.45143 | 27119 ft | 397 kts | 333° |
| 2026-05-01 08:21 | 55.89434 | 36.42351 | 27487 ft | 398 kts | 334° |
| 2026-05-01 08:21 | 55.91807 | 36.39558 | 27854 ft | 399 kts | 335° |
| 2026-05-01 08:21 | 55.94144 | 36.36867 | 28206 ft | 401 kts | 335° |
| 2026-05-01 08:22 | 55.96495 | 36.34168 | 28548 ft | 403 kts | 335° |
| 2026-05-01 08:22 | 55.98856 | 36.31439 | 28841 ft | 404 kts | 335° |
| 2026-05-01 08:22 | 56.01212 | 36.28689 | 29240 ft | 405 kts | 335° |
| 2026-05-01 08:22 | 56.03569 | 36.25917 | 29565 ft | 406 kts | 335° |
| 2026-05-01 08:23 | 56.05934 | 36.23123 | 29905 ft | 408 kts | 334° |
| 2026-05-01 08:23 | 56.08300 | 36.20320 | 30217 ft | 410 kts | 334° |
| 2026-05-01 08:23 | 56.10690 | 36.17484 | 30467 ft | 412 kts | 334° |
| 2026-05-01 08:23 | 56.13012 | 36.14411 | 30687 ft | 422 kts | 326° |
| 2026-05-01 08:24 | 56.15056 | 36.10513 | 30942 ft | 436 kts | 316° |
| 2026-05-01 08:24 | 56.16717 | 36.05784 | 31272 ft | 449 kts | 305° |
| 2026-05-01 08:24 | 56.18078 | 36.00720 | 31563 ft | 451 kts | 304° |
| 2026-05-01 08:24 | 56.19433 | 35.95642 | 31868 ft | 451 kts | 304° |
| 2026-05-01 08:25 | 56.20786 | 35.90557 | 32169 ft | 452 kts | 303° |
| 2026-05-01 08:25 | 56.22143 | 35.85462 | 32478 ft | 452 kts | 303° |
| 2026-05-01 08:25 | 56.23503 | 35.80359 | 32786 ft | 452 kts | 303° |
| 2026-05-01 08:25 | 56.24861 | 35.75265 | 33086 ft | 453 kts | 303° |
| 2026-05-01 08:26 | 56.26223 | 35.70144 | 33384 ft | 453 kts | 303° |
| 2026-05-01 08:26 | 56.27578 | 35.65036 | 33675 ft | 453 kts | 303° |
| 2026-05-01 08:26 | 56.28932 | 35.59915 | 33959 ft | 454 kts | 302° |
| 2026-05-01 08:26 | 56.30283 | 35.54774 | 34245 ft | 454 kts | 302° |
| 2026-05-01 08:27 | 56.31632 | 35.49638 | 34477 ft | 454 kts | 302° |
| 2026-05-01 08:27 | 56.32984 | 35.44492 | 34694 ft | 454 kts | 302° |
| 2026-05-01 08:27 | 56.34329 | 35.39370 | 34977 ft | 453 kts | 302° |
| 2026-05-01 08:27 | 56.35671 | 35.34235 | 35227 ft | 452 kts | 302° |
| 2026-05-01 08:28 | 56.37010 | 35.29097 | 35469 ft | 452 kts | 302° |
| 2026-05-01 08:28 | 56.38343 | 35.23959 | 35689 ft | 452 kts | 302° |
| 2026-05-01 08:28 | 56.39678 | 35.18809 | 35912 ft | 453 kts | 301° |
| 2026-05-01 08:28 | 56.41009 | 35.13669 | 36118 ft | 453 kts | 301° |
| 2026-05-01 08:29 | 56.42342 | 35.08512 | 36195 ft | 452 kts | 301° |
| 2026-05-01 08:29 | 56.44981 | 34.98234 | 36227 ft | 450 kts | 301° |
| 2026-05-01 08:30 | 56.47614 | 34.87992 | 36218 ft | 448 kts | 302° |
| 2026-05-01 08:30 | 56.50240 | 34.77779 | 36223 ft | 448 kts | 302° |
| 2026-05-01 08:31 | 56.52856 | 34.67545 | 36223 ft | 448 kts | 302° |
| 2026-05-01 08:31 | 56.55485 | 34.57228 | 36223 ft | 448 kts | 301° |
| 2026-05-01 08:32 | 56.58073 | 34.46985 | 36225 ft | 448 kts | 301° |
| 2026-05-01 08:32 | 56.60665 | 34.36696 | 36214 ft | 447 kts | 302° |
| 2026-05-01 08:33 | 56.63243 | 34.26425 | 36226 ft | 447 kts | 302° |
| 2026-05-01 08:33 | 56.65813 | 34.16146 | 36230 ft | 446 kts | 302° |
| 2026-05-01 08:34 | 56.68493 | 34.06006 | 36237 ft | 443 kts | 305° |
| 2026-05-01 08:34 | 56.71376 | 33.96125 | 36240 ft | 442 kts | 306° |
| 2026-05-01 08:35 | 56.74259 | 33.86249 | 36232 ft | 441 kts | 306° |
| 2026-05-01 08:35 | 56.77077 | 33.76332 | 36243 ft | 440 kts | 306° |
| 2026-05-01 08:36 | 56.79854 | 33.66385 | 36244 ft | 440 kts | 305° |
| 2026-05-01 08:36 | 56.82621 | 33.56435 | 36247 ft | 439 kts | 305° |
| 2026-05-01 08:37 | 56.85391 | 33.46499 | 36246 ft | 439 kts | 305° |
| 2026-05-01 08:37 | 56.88149 | 33.36554 | 36226 ft | 438 kts | 306° |
| 2026-05-01 08:38 | 56.90891 | 33.26623 | 36242 ft | 437 kts | 305° |
| 2026-05-01 08:38 | 56.93634 | 33.16641 | 36245 ft | 436 kts | 305° |
| 2026-05-01 08:39 | 56.96352 | 33.06710 | 36245 ft | 436 kts | 305° |
| 2026-05-01 08:39 | 56.99061 | 32.96768 | 36247 ft | 436 kts | 305° |
| 2026-05-01 08:40 | 57.02654 | 32.83510 | 36230 ft | 435 kts | 305° |
| 2026-05-01 08:40 | 57.05155 | 32.74255 | 36242 ft | 435 kts | 305° |
| 2026-05-01 08:41 | 57.07815 | 32.64343 | 36218 ft | 426 kts | 305° |
| 2026-05-01 08:41 | 57.09111 | 32.59458 | 36270 ft | 415 kts | 305° |
| 2026-05-01 08:41 | 57.10384 | 32.54656 | 36221 ft | 407 kts | 305° |
| 2026-05-01 08:42 | 57.12841 | 32.45389 | 36235 ft | 389 kts | 306° |
| 2026-05-01 08:42 | 57.15153 | 32.36661 | 36235 ft | 370 kts | 306° |
| 2026-05-01 08:43 | 57.17364 | 32.28298 | 36235 ft | 350 kts | 306° |
| 2026-05-01 08:43 | 57.19556 | 32.20585 | 35686 ft | 336 kts | 320° |
| 2026-05-01 08:44 | 57.21363 | 32.17870 | 33681 ft | 346 kts | 344° |
| 2026-05-01 08:44 | 57.23850 | 32.17021 | 30255 ft | 386 kts | 8° |
| 2026-05-01 08:44 | 57.26413 | 32.18738 | 29404 ft | 386 kts | 26° |
| 2026-05-01 08:44 | 57.28588 | 32.21520 | 29043 ft | 384 kts | 41° |
| 2026-05-01 08:45 | 57.30086 | 32.25794 | 27119 ft | 415 kts | 62° |
| 2026-05-01 08:45 | 57.30470 | 32.31381 | 25301 ft | 464 kts | 90° |
| 2026-05-01 08:45 | 57.29574 | 32.36980 | 25796 ft | 459 kts | 107° |
| 2026-05-01 08:45 | 57.27677 | 32.41930 | 24864 ft | 487 kts | 127° |
| 2026-05-01 08:46 | 57.24791 | 32.45588 | 23090 ft | 531 kts | 154° |
| 2026-05-01 08:46 | 57.21142 | 32.46558 | 23020 ft | 527 kts | 181° |
| 2026-05-01 08:46 | 57.17569 | 32.45188 | 22415 ft | 529 kts | 201° |
| 2026-05-01 08:46 | 57.14469 | 32.41650 | 21332 ft | 524 kts | 227° |
| 2026-05-01 08:47 | 57.12440 | 32.36218 | 21028 ft | 500 kts | 252° |
| 2026-05-01 08:47 | 57.11690 | 32.30226 | 20435 ft | 479 kts | 275° |
| 2026-05-01 08:47 | 57.12220 | 32.24313 | 19527 ft | 453 kts | 299° |
| 2026-05-01 08:47 | 57.13903 | 32.19735 | 18676 ft | 428 kts | 323° |
| 2026-05-01 08:48 | 57.16392 | 32.17085 | 17674 ft | 409 kts | 348° |
| 2026-05-01 08:48 | 57.19213 | 32.16892 | 16731 ft | 397 kts | 14° |
| 2026-05-01 08:48 | 57.21634 | 32.19082 | 15816 ft | 397 kts | 40° |
| 2026-05-01 08:48 | 57.23449 | 32.22893 | 15576 ft | 393 kts | 52° |
| 2026-05-01 08:49 | 57.24522 | 32.27528 | 14471 ft | 410 kts | 79° |
| 2026-05-01 08:49 | 57.24532 | 32.32699 | 14679 ft | 400 kts | 93° |
| 2026-05-01 08:49 | 57.23595 | 32.37640 | 13427 ft | 424 kts | 116° |
| 2026-05-01 08:49 | 57.21555 | 32.41584 | 13572 ft | 413 kts | 137° |
| 2026-05-01 08:50 | 57.19028 | 32.44150 | 13163 ft | 424 kts | 159° |
| 2026-05-01 08:50 | 57.16050 | 32.44798 | 11620 ft | 446 kts | 190° |
| 2026-05-01 08:50 | 57.13224 | 32.43333 | 12416 ft | 411 kts | 204° |
| 2026-05-01 08:50 | 57.10873 | 32.40375 | 11640 ft | 417 kts | 228° |
| 2026-05-01 08:51 | 57.09361 | 32.35831 | 10553 ft | 406 kts | 257° |
| 2026-05-01 08:51 | 57.08906 | 32.31010 | 11276 ft | 372 kts | 275° |
| 2026-05-01 08:51 | 57.09440 | 32.26421 | 10441 ft | 373 kts | 298° |
| 2026-05-01 08:51 | 57.11067 | 32.22689 | 8969 ft | 371 kts | 329° |
| 2026-05-01 08:52 | 57.13212 | 32.20664 | 9816 ft | 337 kts | 345° |
| 2026-05-01 08:52 | 57.15556 | 32.20383 | 8934 ft | 347 kts | 9° |
| 2026-05-01 08:52 | 57.17818 | 32.22270 | 7362 ft | 367 kts | 41° |
| 2026-05-01 08:52 | 57.19442 | 32.25713 | 7818 ft | 349 kts | 56° |
| 2026-05-01 08:53 | 57.20227 | 32.29986 | 6733 ft | 369 kts | 81° |
| 2026-05-01 08:53 | 57.19808 | 32.34695 | 6586 ft | 359 kts | 108° |
| 2026-05-01 08:53 | 57.18520 | 32.38579 | 6452 ft | 362 kts | 132° |
| 2026-05-01 08:53 | 57.16399 | 32.41192 | 4895 ft | 389 kts | 164° |
| 2026-05-01 08:54 | 57.13887 | 32.41719 | 5613 ft | 352 kts | 184° |
| 2026-05-01 08:54 | 57.11516 | 32.40474 | 4940 ft | 360 kts | 210° |
| 2026-05-01 08:54 | 57.09693 | 32.37272 | 3954 ft | 356 kts | 240° |
| 2026-05-01 08:54 | 57.08767 | 32.33240 | 4237 ft | 339 kts | 261° |
| 2026-05-01 08:55 | 57.08838 | 32.28940 | 2955 ft | 351 kts | 285° |
| 2026-05-01 08:55 | 57.10082 | 32.25207 | 3010 ft | 330 kts | 313° |
| 2026-05-01 08:55 | 57.11963 | 32.22840 | 2620 ft | 333 kts | 339° |
| 2026-05-01 08:55 | 57.14321 | 32.22418 | 1326 ft | 346 kts | 11° |
| 2026-05-01 08:56 | 57.16516 | 32.23877 | 1196 ft | 341 kts | 30° |
| 2026-05-01 08:56 | 57.17278 | 32.24899 | 896 ft | 4 kts | 319° |
| 2026-05-01 08:56 | 57.17276 | 32.24891 | 896 ft | 0 kts | 330° |
| 2026-05-01 08:58 | 57.17277 | 32.24891 | 896 ft | 0 kts | 330° |